sensor_id;sensor_type;location;lat;lon;timestamp;P1;durP1;ratioP1;P2;durP2;ratioP2
11807;SDS011;5961;42.640;23.380;2022-10-16T00:00:44;11.80;;;9.23;;
11807;SDS011;5961;42.640;23.380;2022-10-16T00:03:11;13.27;;;8.57;;
11807;SDS011;5961;42.640;23.380;2022-10-16T00:05:38;11.90;;;8.90;;
11807;SDS011;5961;42.640;23.380;2022-10-16T00:08:06;13.70;;;8.67;;
11807;SDS011;5961;42.640;23.380;2022-10-16T00:10:33;13.30;;;7.97;;
11807;SDS011;5961;42.640;23.380;2022-10-16T00:13:01;12.73;;;8.67;;
11807;SDS011;5961;42.640;23.380;2022-10-16T00:15:28;12.07;;;8.30;;
11807;SDS011;5961;42.640;23.380;2022-10-16T00:17:55;10.33;;;8.40;;
11807;SDS011;5961;42.640;23.380;2022-10-16T00:20:22;12.87;;;8.87;;
11807;SDS011;5961;42.640;23.380;2022-10-16T00:22:48;13.33;;;8.63;;
11807;SDS011;5961;42.640;23.380;2022-10-16T00:25:15;11.70;;;9.33;;
11807;SDS011;5961;42.640;23.380;2022-10-16T00:27:42;12.30;;;8.73;;
11807;SDS011;5961;42.640;23.380;2022-10-16T00:30:10;11.13;;;8.67;;
11807;SDS011;5961;42.640;23.380;2022-10-16T00:32:37;11.13;;;8.63;;
11807;SDS011;5961;42.640;23.380;2022-10-16T00:35:04;15.87;;;8.90;;
11807;SDS011;5961;42.640;23.380;2022-10-16T00:37:31;12.00;;;8.67;;
11807;SDS011;5961;42.640;23.380;2022-10-16T00:39:58;13.80;;;8.70;;
11807;SDS011;5961;42.640;23.380;2022-10-16T00:42:25;11.70;;;8.67;;
11807;SDS011;5961;42.640;23.380;2022-10-16T00:44:53;12.70;;;9.97;;
11807;SDS011;5961;42.640;23.380;2022-10-16T00:47:24;16.10;;;12.37;;
11807;SDS011;5961;42.640;23.380;2022-10-16T00:49:56;15.17;;;11.53;;
11807;SDS011;5961;42.640;23.380;2022-10-16T00:52:26;15.50;;;11.07;;
11807;SDS011;5961;42.640;23.380;2022-10-16T00:54:53;14.03;;;10.57;;
11807;SDS011;5961;42.640;23.380;2022-10-16T00:57:21;15.73;;;10.30;;
11807;SDS011;5961;42.640;23.380;2022-10-16T00:59:49;14.30;;;9.37;;
11807;SDS011;5961;42.640;23.380;2022-10-16T01:02:16;14.03;;;9.30;;
11807;SDS011;5961;42.640;23.380;2022-10-16T01:04:46;13.50;;;9.97;;
11807;SDS011;5961;42.640;23.380;2022-10-16T01:07:18;11.60;;;8.67;;
11807;SDS011;5961;42.640;23.380;2022-10-16T01:09:58;13.93;;;9.43;;
11807;SDS011;5961;42.640;23.380;2022-10-16T01:12:36;11.27;;;8.43;;
11807;SDS011;5961;42.640;23.380;2022-10-16T01:15:09;10.60;;;7.80;;
11807;SDS011;5961;42.640;23.380;2022-10-16T01:17:41;11.53;;;6.43;;
11807;SDS011;5961;42.640;23.380;2022-10-16T01:20:17;6.43;;;5.10;;
11807;SDS011;5961;42.640;23.380;2022-10-16T01:22:56;7.80;;;4.53;;
11807;SDS011;5961;42.640;23.380;2022-10-16T01:25:33;7.37;;;4.43;;
11807;SDS011;5961;42.640;23.380;2022-10-16T01:28:08;7.03;;;4.50;;
11807;SDS011;5961;42.640;23.380;2022-10-16T01:30:37;7.27;;;4.53;;
11807;SDS011;5961;42.640;23.380;2022-10-16T01:33:08;6.43;;;4.63;;
11807;SDS011;5961;42.640;23.380;2022-10-16T01:35:39;7.23;;;4.93;;
11807;SDS011;5961;42.640;23.380;2022-10-16T01:38:12;6.00;;;4.63;;
11807;SDS011;5961;42.640;23.380;2022-10-16T01:40:44;6.23;;;4.67;;
11807;SDS011;5961;42.640;23.380;2022-10-16T01:43:17;8.57;;;4.70;;
11807;SDS011;5961;42.640;23.380;2022-10-16T01:45:47;6.07;;;4.70;;
11807;SDS011;5961;42.640;23.380;2022-10-16T01:48:16;7.60;;;4.50;;
11807;SDS011;5961;42.640;23.380;2022-10-16T01:50:44;6.87;;;4.63;;
11807;SDS011;5961;42.640;23.380;2022-10-16T01:53:20;6.13;;;4.40;;
11807;SDS011;5961;42.640;23.380;2022-10-16T01:55:49;6.47;;;4.93;;
11807;SDS011;5961;42.640;23.380;2022-10-16T01:58:20;5.77;;;4.40;;
11807;SDS011;5961;42.640;23.380;2022-10-16T02:00:48;5.27;;;4.60;;
11807;SDS011;5961;42.640;23.380;2022-10-16T02:03:17;8.23;;;5.23;;
11807;SDS011;5961;42.640;23.380;2022-10-16T02:05:46;5.87;;;4.83;;
11807;SDS011;5961;42.640;23.380;2022-10-16T02:08:16;6.27;;;5.07;;
11807;SDS011;5961;42.640;23.380;2022-10-16T02:10:43;7.67;;;4.90;;
11807;SDS011;5961;42.640;23.380;2022-10-16T02:13:12;6.13;;;4.50;;
11807;SDS011;5961;42.640;23.380;2022-10-16T02:15:44;6.30;;;4.53;;
11807;SDS011;5961;42.640;23.380;2022-10-16T02:18:11;7.47;;;4.50;;
11807;SDS011;5961;42.640;23.380;2022-10-16T02:20:40;5.00;;;4.47;;
11807;SDS011;5961;42.640;23.380;2022-10-16T02:23:16;5.13;;;4.50;;
11807;SDS011;5961;42.640;23.380;2022-10-16T02:25:49;5.37;;;4.87;;
11807;SDS011;5961;42.640;23.380;2022-10-16T02:28:18;6.33;;;4.73;;
11807;SDS011;5961;42.640;23.380;2022-10-16T02:30:52;7.07;;;4.63;;
11807;SDS011;5961;42.640;23.380;2022-10-16T02:33:23;6.30;;;4.80;;
11807;SDS011;5961;42.640;23.380;2022-10-16T02:35:52;7.63;;;4.97;;
11807;SDS011;5961;42.640;23.380;2022-10-16T02:38:20;6.63;;;4.90;;
11807;SDS011;5961;42.640;23.380;2022-10-16T02:40:49;7.80;;;4.93;;
11807;SDS011;5961;42.640;23.380;2022-10-16T02:43:15;6.43;;;4.83;;
11807;SDS011;5961;42.640;23.380;2022-10-16T02:45:42;5.63;;;5.03;;
11807;SDS011;5961;42.640;23.380;2022-10-16T02:48:11;7.67;;;4.73;;
11807;SDS011;5961;42.640;23.380;2022-10-16T02:50:37;7.17;;;5.37;;
11807;SDS011;5961;42.640;23.380;2022-10-16T02:53:04;6.13;;;5.03;;
11807;SDS011;5961;42.640;23.380;2022-10-16T02:55:31;7.77;;;5.43;;
11807;SDS011;5961;42.640;23.380;2022-10-16T02:57:58;6.87;;;5.23;;
11807;SDS011;5961;42.640;23.380;2022-10-16T03:00:24;8.37;;;4.97;;
11807;SDS011;5961;42.640;23.380;2022-10-16T03:02:51;8.27;;;5.20;;
11807;SDS011;5961;42.640;23.380;2022-10-16T03:05:19;6.90;;;5.20;;
11807;SDS011;5961;42.640;23.380;2022-10-16T03:07:46;5.97;;;5.37;;
11807;SDS011;5961;42.640;23.380;2022-10-16T03:10:13;7.23;;;6.10;;
11807;SDS011;5961;42.640;23.380;2022-10-16T03:12:39;7.73;;;6.23;;
11807;SDS011;5961;42.640;23.380;2022-10-16T03:15:06;7.47;;;5.93;;
11807;SDS011;5961;42.640;23.380;2022-10-16T03:17:34;7.50;;;5.70;;
11807;SDS011;5961;42.640;23.380;2022-10-16T03:20:00;8.47;;;6.50;;
11807;SDS011;5961;42.640;23.380;2022-10-16T03:22:29;9.47;;;6.50;;
11807;SDS011;5961;42.640;23.380;2022-10-16T03:24:55;7.93;;;6.23;;
11807;SDS011;5961;42.640;23.380;2022-10-16T03:27:22;8.27;;;6.67;;
11807;SDS011;5961;42.640;23.380;2022-10-16T03:29:49;7.80;;;6.00;;
11807;SDS011;5961;42.640;23.380;2022-10-16T03:32:15;11.43;;;6.23;;
11807;SDS011;5961;42.640;23.380;2022-10-16T03:34:43;10.67;;;6.10;;
11807;SDS011;5961;42.640;23.380;2022-10-16T03:37:10;8.23;;;6.23;;
11807;SDS011;5961;42.640;23.380;2022-10-16T03:39:38;8.70;;;6.00;;
11807;SDS011;5961;42.640;23.380;2022-10-16T03:42:04;8.93;;;6.17;;
11807;SDS011;5961;42.640;23.380;2022-10-16T03:44:31;8.13;;;6.30;;
11807;SDS011;5961;42.640;23.380;2022-10-16T03:46:58;9.10;;;6.20;;
11807;SDS011;5961;42.640;23.380;2022-10-16T03:49:25;7.70;;;6.17;;
11807;SDS011;5961;42.640;23.380;2022-10-16T03:51:51;7.47;;;6.07;;
11807;SDS011;5961;42.640;23.380;2022-10-16T03:54:18;8.47;;;5.87;;
11807;SDS011;5961;42.640;23.380;2022-10-16T03:56:46;9.10;;;5.80;;
11807;SDS011;5961;42.640;23.380;2022-10-16T03:59:13;7.37;;;5.90;;
11807;SDS011;5961;42.640;23.380;2022-10-16T04:01:40;9.40;;;7.30;;
11807;SDS011;5961;42.640;23.380;2022-10-16T04:04:06;10.73;;;7.43;;
11807;SDS011;5961;42.640;23.380;2022-10-16T04:06:33;10.23;;;7.40;;
11807;SDS011;5961;42.640;23.380;2022-10-16T04:09:00;9.33;;;7.43;;
11807;SDS011;5961;42.640;23.380;2022-10-16T04:11:26;10.77;;;8.00;;
11807;SDS011;5961;42.640;23.380;2022-10-16T04:13:54;9.23;;;7.47;;
11807;SDS011;5961;42.640;23.380;2022-10-16T04:16:21;10.03;;;7.27;;
11807;SDS011;5961;42.640;23.380;2022-10-16T04:18:48;9.23;;;7.40;;
11807;SDS011;5961;42.640;23.380;2022-10-16T04:21:15;8.97;;;7.53;;
11807;SDS011;5961;42.640;23.380;2022-10-16T04:23:41;10.63;;;7.80;;
11807;SDS011;5961;42.640;23.380;2022-10-16T04:26:09;8.60;;;7.03;;
11807;SDS011;5961;42.640;23.380;2022-10-16T04:28:36;11.17;;;6.90;;
11807;SDS011;5961;42.640;23.380;2022-10-16T04:31:05;9.23;;;6.93;;
11807;SDS011;5961;42.640;23.380;2022-10-16T04:33:32;7.13;;;6.40;;
11807;SDS011;5961;42.640;23.380;2022-10-16T04:35:59;7.37;;;6.20;;
11807;SDS011;5961;42.640;23.380;2022-10-16T04:38:27;8.40;;;6.50;;
11807;SDS011;5961;42.640;23.380;2022-10-16T04:40:53;8.47;;;6.80;;
11807;SDS011;5961;42.640;23.380;2022-10-16T04:43:20;11.97;;;6.40;;
11807;SDS011;5961;42.640;23.380;2022-10-16T04:45:48;10.93;;;6.37;;
11807;SDS011;5961;42.640;23.380;2022-10-16T04:48:17;7.20;;;6.07;;
11807;SDS011;5961;42.640;23.380;2022-10-16T04:50:44;8.13;;;6.20;;
11807;SDS011;5961;42.640;23.380;2022-10-16T04:53:11;8.83;;;6.30;;
11807;SDS011;5961;42.640;23.380;2022-10-16T04:55:38;10.43;;;6.77;;
11807;SDS011;5961;42.640;23.380;2022-10-16T04:58:04;13.73;;;7.20;;
11807;SDS011;5961;42.640;23.380;2022-10-16T05:00:31;7.43;;;6.30;;
11807;SDS011;5961;42.640;23.380;2022-10-16T05:02:58;8.83;;;6.27;;
11807;SDS011;5961;42.640;23.380;2022-10-16T05:05:27;8.43;;;6.67;;
11807;SDS011;5961;42.640;23.380;2022-10-16T05:07:54;7.60;;;6.30;;
11807;SDS011;5961;42.640;23.380;2022-10-16T05:10:20;10.03;;;7.13;;
11807;SDS011;5961;42.640;23.380;2022-10-16T05:12:47;8.83;;;6.67;;
11807;SDS011;5961;42.640;23.380;2022-10-16T05:15:14;10.37;;;6.40;;
11807;SDS011;5961;42.640;23.380;2022-10-16T05:17:41;7.43;;;6.67;;
11807;SDS011;5961;42.640;23.380;2022-10-16T05:20:07;8.47;;;6.30;;
11807;SDS011;5961;42.640;23.380;2022-10-16T05:22:35;11.17;;;6.00;;
11807;SDS011;5961;42.640;23.380;2022-10-16T05:25:02;7.47;;;6.37;;
11807;SDS011;5961;42.640;23.380;2022-10-16T05:27:30;7.80;;;6.23;;
11807;SDS011;5961;42.640;23.380;2022-10-16T05:29:57;9.30;;;6.83;;
11807;SDS011;5961;42.640;23.380;2022-10-16T05:32:23;7.33;;;5.90;;
11807;SDS011;5961;42.640;23.380;2022-10-16T05:34:50;13.20;;;6.63;;
11807;SDS011;5961;42.640;23.380;2022-10-16T05:37:17;8.70;;;6.70;;
11807;SDS011;5961;42.640;23.380;2022-10-16T05:39:45;7.57;;;6.10;;
11807;SDS011;5961;42.640;23.380;2022-10-16T05:42:12;8.80;;;6.70;;
11807;SDS011;5961;42.640;23.380;2022-10-16T05:44:38;11.60;;;8.60;;
11807;SDS011;5961;42.640;23.380;2022-10-16T05:47:05;9.80;;;7.60;;
11807;SDS011;5961;42.640;23.380;2022-10-16T05:49:32;11.70;;;7.17;;
11807;SDS011;5961;42.640;23.380;2022-10-16T05:51:58;8.90;;;7.23;;
11807;SDS011;5961;42.640;23.380;2022-10-16T05:54:25;12.63;;;8.77;;
11807;SDS011;5961;42.640;23.380;2022-10-16T05:56:53;10.17;;;6.90;;
11807;SDS011;5961;42.640;23.380;2022-10-16T05:59:20;14.80;;;8.87;;
11807;SDS011;5961;42.640;23.380;2022-10-16T06:01:47;8.73;;;6.57;;
11807;SDS011;5961;42.640;23.380;2022-10-16T06:04:14;9.73;;;7.07;;
11807;SDS011;5961;42.640;23.380;2022-10-16T06:06:40;13.90;;;9.87;;
11807;SDS011;5961;42.640;23.380;2022-10-16T06:09:08;11.30;;;7.47;;
11807;SDS011;5961;42.640;23.380;2022-10-16T06:11:35;10.23;;;7.23;;
11807;SDS011;5961;42.640;23.380;2022-10-16T06:14:04;8.60;;;7.20;;
11807;SDS011;5961;42.640;23.380;2022-10-16T06:16:32;11.27;;;8.43;;
11807;SDS011;5961;42.640;23.380;2022-10-16T06:19:00;9.03;;;7.43;;
11807;SDS011;5961;42.640;23.380;2022-10-16T06:21:27;7.83;;;6.17;;
11807;SDS011;5961;42.640;23.380;2022-10-16T06:23:55;15.67;;;7.17;;
11807;SDS011;5961;42.640;23.380;2022-10-16T06:26:23;11.33;;;7.13;;
11807;SDS011;5961;42.640;23.380;2022-10-16T06:28:51;9.10;;;6.83;;
11807;SDS011;5961;42.640;23.380;2022-10-16T06:31:21;8.43;;;6.40;;
11807;SDS011;5961;42.640;23.380;2022-10-16T06:33:52;9.60;;;6.97;;
11807;SDS011;5961;42.640;23.380;2022-10-16T06:36:19;9.83;;;6.43;;
11807;SDS011;5961;42.640;23.380;2022-10-16T06:38:46;8.73;;;6.13;;
11807;SDS011;5961;42.640;23.380;2022-10-16T06:41:14;8.20;;;6.37;;
11807;SDS011;5961;42.640;23.380;2022-10-16T06:43:42;9.03;;;6.03;;
11807;SDS011;5961;42.640;23.380;2022-10-16T06:46:10;7.17;;;6.17;;
11807;SDS011;5961;42.640;23.380;2022-10-16T06:48:40;8.97;;;6.07;;
11807;SDS011;5961;42.640;23.380;2022-10-16T06:51:08;10.30;;;6.03;;
11807;SDS011;5961;42.640;23.380;2022-10-16T06:53:37;7.23;;;6.33;;
11807;SDS011;5961;42.640;23.380;2022-10-16T06:56:08;13.07;;;6.83;;
11807;SDS011;5961;42.640;23.380;2022-10-16T06:58:37;8.90;;;6.30;;
11807;SDS011;5961;42.640;23.380;2022-10-16T07:01:04;10.47;;;6.43;;
11807;SDS011;5961;42.640;23.380;2022-10-16T07:03:31;9.80;;;7.27;;
11807;SDS011;5961;42.640;23.380;2022-10-16T07:06:02;9.73;;;6.40;;
11807;SDS011;5961;42.640;23.380;2022-10-16T07:08:30;14.20;;;7.30;;
11807;SDS011;5961;42.640;23.380;2022-10-16T07:10:58;9.20;;;6.97;;
11807;SDS011;5961;42.640;23.380;2022-10-16T07:13:25;12.07;;;7.30;;
11807;SDS011;5961;42.640;23.380;2022-10-16T07:15:52;10.23;;;7.60;;
11807;SDS011;5961;42.640;23.380;2022-10-16T07:18:19;9.50;;;7.90;;
11807;SDS011;5961;42.640;23.380;2022-10-16T07:20:46;12.80;;;9.17;;
11807;SDS011;5961;42.640;23.380;2022-10-16T07:23:14;10.90;;;8.07;;
11807;SDS011;5961;42.640;23.380;2022-10-16T07:25:40;10.60;;;8.03;;
11807;SDS011;5961;42.640;23.380;2022-10-16T07:28:07;13.73;;;8.47;;
11807;SDS011;5961;42.640;23.380;2022-10-16T07:30:34;14.80;;;8.70;;
11807;SDS011;5961;42.640;23.380;2022-10-16T07:33:01;13.63;;;8.10;;
11807;SDS011;5961;42.640;23.380;2022-10-16T07:35:28;11.33;;;8.53;;
11807;SDS011;5961;42.640;23.380;2022-10-16T07:37:55;14.93;;;10.57;;
11807;SDS011;5961;42.640;23.380;2022-10-16T07:40:23;17.47;;;9.07;;
11807;SDS011;5961;42.640;23.380;2022-10-16T07:42:52;15.70;;;10.30;;
11807;SDS011;5961;42.640;23.380;2022-10-16T07:45:18;13.77;;;8.60;;
11807;SDS011;5961;42.640;23.380;2022-10-16T07:47:45;14.03;;;8.90;;
11807;SDS011;5961;42.640;23.380;2022-10-16T07:50:12;16.27;;;9.33;;
11807;SDS011;5961;42.640;23.380;2022-10-16T07:52:39;15.57;;;10.37;;
11807;SDS011;5961;42.640;23.380;2022-10-16T07:55:05;15.37;;;10.37;;
11807;SDS011;5961;42.640;23.380;2022-10-16T07:57:34;17.60;;;12.73;;
11807;SDS011;5961;42.640;23.380;2022-10-16T08:00:01;15.00;;;9.53;;
11807;SDS011;5961;42.640;23.380;2022-10-16T08:02:27;13.97;;;8.97;;
11807;SDS011;5961;42.640;23.380;2022-10-16T08:04:55;10.77;;;8.20;;
11807;SDS011;5961;42.640;23.380;2022-10-16T08:07:21;11.23;;;7.63;;
11807;SDS011;5961;42.640;23.380;2022-10-16T08:09:48;11.97;;;6.47;;
11807;SDS011;5961;42.640;23.380;2022-10-16T08:12:16;14.83;;;8.87;;
11807;SDS011;5961;42.640;23.380;2022-10-16T08:14:44;11.90;;;7.50;;
11807;SDS011;5961;42.640;23.380;2022-10-16T08:17:13;14.37;;;7.20;;
11807;SDS011;5961;42.640;23.380;2022-10-16T08:19:40;10.03;;;7.17;;
11807;SDS011;5961;42.640;23.380;2022-10-16T08:22:10;15.80;;;7.03;;
11807;SDS011;5961;42.640;23.380;2022-10-16T08:24:37;12.00;;;7.07;;
11807;SDS011;5961;42.640;23.380;2022-10-16T08:27:04;8.40;;;6.20;;
11807;SDS011;5961;42.640;23.380;2022-10-16T08:29:31;9.67;;;7.03;;
11807;SDS011;5961;42.640;23.380;2022-10-16T08:31:59;9.03;;;6.73;;
11807;SDS011;5961;42.640;23.380;2022-10-16T08:34:25;9.80;;;6.17;;
11807;SDS011;5961;42.640;23.380;2022-10-16T08:36:53;8.97;;;6.37;;
11807;SDS011;5961;42.640;23.380;2022-10-16T08:39:19;9.57;;;6.53;;
11807;SDS011;5961;42.640;23.380;2022-10-16T08:41:56;8.97;;;5.93;;
11807;SDS011;5961;42.640;23.380;2022-10-16T08:44:42;10.53;;;6.10;;
11807;SDS011;5961;42.640;23.380;2022-10-16T08:47:26;8.03;;;6.30;;
11807;SDS011;5961;42.640;23.380;2022-10-16T08:50:02;9.03;;;5.60;;
11807;SDS011;5961;42.640;23.380;2022-10-16T08:52:38;7.53;;;5.33;;
11807;SDS011;5961;42.640;23.380;2022-10-16T08:55:08;8.23;;;5.10;;
11807;SDS011;5961;42.640;23.380;2022-10-16T08:57:47;7.87;;;6.10;;
11807;SDS011;5961;42.640;23.380;2022-10-16T09:00:14;14.73;;;9.67;;
11807;SDS011;5961;42.640;23.380;2022-10-16T09:02:45;6.27;;;4.53;;
11807;SDS011;5961;42.640;23.380;2022-10-16T09:05:21;9.30;;;5.53;;
11807;SDS011;5961;42.640;23.380;2022-10-16T09:07:58;7.67;;;5.13;;
11807;SDS011;5961;42.640;23.380;2022-10-16T09:10:33;10.97;;;7.33;;
11807;SDS011;5961;42.640;23.380;2022-10-16T09:13:11;6.20;;;4.77;;
11807;SDS011;5961;42.640;23.380;2022-10-16T09:15:45;6.00;;;5.13;;
11807;SDS011;5961;42.640;23.380;2022-10-16T09:18:21;11.63;;;7.90;;
11807;SDS011;5961;42.640;23.380;2022-10-16T09:20:53;9.67;;;7.00;;
11807;SDS011;5961;42.640;23.380;2022-10-16T09:23:33;6.37;;;5.13;;
11807;SDS011;5961;42.640;23.380;2022-10-16T09:26:01;11.00;;;4.70;;
11807;SDS011;5961;42.640;23.380;2022-10-16T09:28:30;5.60;;;4.30;;
11807;SDS011;5961;42.640;23.380;2022-10-16T09:30:56;6.57;;;4.70;;
11807;SDS011;5961;42.640;23.380;2022-10-16T09:33:25;5.20;;;4.23;;
11807;SDS011;5961;42.640;23.380;2022-10-16T09:35:56;5.73;;;3.93;;
11807;SDS011;5961;42.640;23.380;2022-10-16T09:38:25;9.93;;;5.37;;
11807;SDS011;5961;42.640;23.380;2022-10-16T09:40:54;6.80;;;5.20;;
11807;SDS011;5961;42.640;23.380;2022-10-16T09:43:23;7.57;;;3.60;;
11807;SDS011;5961;42.640;23.380;2022-10-16T09:45:55;7.73;;;4.00;;
11807;SDS011;5961;42.640;23.380;2022-10-16T09:48:25;4.53;;;3.73;;
11807;SDS011;5961;42.640;23.380;2022-10-16T09:50:57;4.83;;;3.57;;
11807;SDS011;5961;42.640;23.380;2022-10-16T09:53:26;4.63;;;3.53;;
11807;SDS011;5961;42.640;23.380;2022-10-16T09:56:05;5.13;;;4.50;;
11807;SDS011;5961;42.640;23.380;2022-10-16T09:58:32;8.33;;;4.60;;
11807;SDS011;5961;42.640;23.380;2022-10-16T10:00:59;7.20;;;4.73;;
11807;SDS011;5961;42.640;23.380;2022-10-16T10:03:37;5.30;;;4.10;;
11807;SDS011;5961;42.640;23.380;2022-10-16T10:06:13;7.27;;;4.33;;
11807;SDS011;5961;42.640;23.380;2022-10-16T10:08:53;7.03;;;4.57;;
11807;SDS011;5961;42.640;23.380;2022-10-16T10:11:40;6.33;;;4.17;;
11807;SDS011;5961;42.640;23.380;2022-10-16T10:14:21;6.13;;;5.03;;
11807;SDS011;5961;42.640;23.380;2022-10-16T10:16:50;6.80;;;5.43;;
11807;SDS011;5961;42.640;23.380;2022-10-16T10:19:20;5.57;;;4.30;;
11807;SDS011;5961;42.640;23.380;2022-10-16T10:21:49;4.43;;;4.03;;
11807;SDS011;5961;42.640;23.380;2022-10-16T10:24:17;7.20;;;4.87;;
11807;SDS011;5961;42.640;23.380;2022-10-16T10:26:48;7.97;;;4.47;;
11807;SDS011;5961;42.640;23.380;2022-10-16T10:29:22;5.63;;;5.03;;
11807;SDS011;5961;42.640;23.380;2022-10-16T10:31:59;7.63;;;5.63;;
11807;SDS011;5961;42.640;23.380;2022-10-16T10:34:45;8.43;;;4.37;;
11807;SDS011;5961;42.640;23.380;2022-10-16T10:37:24;7.57;;;5.30;;
11807;SDS011;5961;42.640;23.380;2022-10-16T10:40:05;8.90;;;4.77;;
11807;SDS011;5961;42.640;23.380;2022-10-16T10:42:39;8.17;;;5.33;;
11807;SDS011;5961;42.640;23.380;2022-10-16T10:45:22;5.97;;;4.30;;
11807;SDS011;5961;42.640;23.380;2022-10-16T10:47:59;4.03;;;3.63;;
11807;SDS011;5961;42.640;23.380;2022-10-16T10:50:41;7.23;;;5.57;;
11807;SDS011;5961;42.640;23.380;2022-10-16T10:53:18;8.87;;;5.50;;
11807;SDS011;5961;42.640;23.380;2022-10-16T10:55:52;11.97;;;6.20;;
11807;SDS011;5961;42.640;23.380;2022-10-16T11:01:29;4.60;;;4.10;;
11807;SDS011;5961;42.640;23.380;2022-10-16T11:04:15;5.07;;;3.87;;
11807;SDS011;5961;42.640;23.380;2022-10-16T11:07:02;3.00;;;2.70;;
11807;SDS011;5961;42.640;23.380;2022-10-16T11:09:31;3.30;;;2.90;;
11807;SDS011;5961;42.640;23.380;2022-10-16T11:12:05;6.20;;;4.17;;
11807;SDS011;5961;42.640;23.380;2022-10-16T11:14:36;3.43;;;3.13;;
11807;SDS011;5961;42.640;23.380;2022-10-16T11:17:08;3.63;;;2.83;;
11807;SDS011;5961;42.640;23.380;2022-10-16T11:19:41;5.33;;;2.90;;
11807;SDS011;5961;42.640;23.380;2022-10-16T11:22:15;3.00;;;2.70;;
11807;SDS011;5961;42.640;23.380;2022-10-16T11:24:46;2.80;;;2.60;;
11807;SDS011;5961;42.640;23.380;2022-10-16T11:27:19;6.63;;;3.43;;
11807;SDS011;5961;42.640;23.380;2022-10-16T11:29:51;3.30;;;3.00;;
11807;SDS011;5961;42.640;23.380;2022-10-16T11:32:22;5.67;;;3.97;;
11807;SDS011;5961;42.640;23.380;2022-10-16T11:34:55;3.60;;;3.30;;
11807;SDS011;5961;42.640;23.380;2022-10-16T11:37:29;4.23;;;3.23;;
11807;SDS011;5961;42.640;23.380;2022-10-16T11:40:03;4.67;;;3.13;;
11807;SDS011;5961;42.640;23.380;2022-10-16T11:42:44;4.40;;;2.93;;
11807;SDS011;5961;42.640;23.380;2022-10-16T11:45:18;4.10;;;3.30;;
11807;SDS011;5961;42.640;23.380;2022-10-16T11:47:54;6.17;;;3.80;;
11807;SDS011;5961;42.640;23.380;2022-10-16T11:50:28;6.17;;;4.00;;
11807;SDS011;5961;42.640;23.380;2022-10-16T11:53:01;4.97;;;3.77;;
11807;SDS011;5961;42.640;23.380;2022-10-16T11:55:35;5.17;;;3.47;;
11807;SDS011;5961;42.640;23.380;2022-10-16T11:58:04;5.57;;;3.33;;
11807;SDS011;5961;42.640;23.380;2022-10-16T12:00:36;4.30;;;3.27;;
11807;SDS011;5961;42.640;23.380;2022-10-16T12:03:11;4.03;;;3.50;;
11807;SDS011;5961;42.640;23.380;2022-10-16T12:05:52;5.83;;;3.60;;
11807;SDS011;5961;42.640;23.380;2022-10-16T12:08:29;6.20;;;3.87;;
11807;SDS011;5961;42.640;23.380;2022-10-16T12:11:05;4.17;;;3.77;;
11807;SDS011;5961;42.640;23.380;2022-10-16T12:13:35;4.33;;;3.00;;
11807;SDS011;5961;42.640;23.380;2022-10-16T12:16:06;4.87;;;3.43;;
11807;SDS011;5961;42.640;23.380;2022-10-16T12:18:46;5.70;;;3.20;;
11807;SDS011;5961;42.640;23.380;2022-10-16T12:21:13;6.33;;;3.30;;
11807;SDS011;5961;42.640;23.380;2022-10-16T12:23:48;7.60;;;3.83;;
11807;SDS011;5961;42.640;23.380;2022-10-16T12:26:25;4.50;;;3.63;;
11807;SDS011;5961;42.640;23.380;2022-10-16T12:28:54;3.60;;;3.08;;
11807;SDS011;5961;42.640;23.380;2022-10-16T12:31:22;8.00;;;3.75;;
11807;SDS011;5961;42.640;23.380;2022-10-16T12:34:19;3.20;;;2.90;;
11807;SDS011;5961;42.640;23.380;2022-10-16T12:36:50;4.95;;;3.00;;
11807;SDS011;5961;42.640;23.380;2022-10-16T12:39:23;5.38;;;2.90;;
11807;SDS011;5961;42.640;23.380;2022-10-16T12:42:00;4.13;;;2.80;;
11807;SDS011;5961;42.640;23.380;2022-10-16T12:44:31;4.25;;;3.85;;
11807;SDS011;5961;42.640;23.380;2022-10-16T12:46:59;3.20;;;2.90;;
11807;SDS011;5961;42.640;23.380;2022-10-16T12:49:30;5.95;;;3.70;;
11807;SDS011;5961;42.640;23.380;2022-10-16T12:52:01;3.75;;;3.22;;
11807;SDS011;5961;42.640;23.380;2022-10-16T12:54:31;4.25;;;3.08;;
11807;SDS011;5961;42.640;23.380;2022-10-16T12:57:09;5.00;;;3.42;;
11807;SDS011;5961;42.640;23.380;2022-10-16T12:59:48;4.00;;;3.35;;
11807;SDS011;5961;42.640;23.380;2022-10-16T13:05:33;4.82;;;3.10;;
11807;SDS011;5961;42.640;23.380;2022-10-16T13:08:16;5.38;;;3.30;;
11807;SDS011;5961;42.640;23.380;2022-10-16T13:11:01;5.97;;;3.20;;
11807;SDS011;5961;42.640;23.380;2022-10-16T13:16:24;4.55;;;3.60;;
11807;SDS011;5961;42.640;23.380;2022-10-16T13:19:05;4.57;;;2.78;;
11807;SDS011;5961;42.640;23.380;2022-10-16T13:21:43;5.97;;;5.38;;
11807;SDS011;5961;42.640;23.380;2022-10-16T13:24:22;6.15;;;4.20;;
11807;SDS011;5961;42.640;23.380;2022-10-16T13:27:12;7.35;;;5.43;;
11807;SDS011;5961;42.640;23.380;2022-10-16T13:29:48;7.25;;;4.35;;
11807;SDS011;5961;42.640;23.380;2022-10-16T13:32:21;6.25;;;4.38;;
11807;SDS011;5961;42.640;23.380;2022-10-16T13:34:48;6.38;;;3.45;;
11807;SDS011;5961;42.640;23.380;2022-10-16T13:37:18;3.88;;;3.17;;
11807;SDS011;5961;42.640;23.380;2022-10-16T13:39:47;6.55;;;5.13;;
11807;SDS011;5961;42.640;23.380;2022-10-16T13:42:18;5.07;;;3.42;;
11807;SDS011;5961;42.640;23.380;2022-10-16T13:44:49;4.57;;;3.28;;
11807;SDS011;5961;42.640;23.380;2022-10-16T13:47:17;5.60;;;3.00;;
11807;SDS011;5961;42.640;23.380;2022-10-16T13:49:45;11.05;;;7.72;;
11807;SDS011;5961;42.640;23.380;2022-10-16T13:52:17;14.77;;;8.68;;
11807;SDS011;5961;42.640;23.380;2022-10-16T13:54:45;6.18;;;5.03;;
11807;SDS011;5961;42.640;23.380;2022-10-16T13:57:13;9.52;;;5.03;;
11807;SDS011;5961;42.640;23.380;2022-10-16T13:59:41;6.43;;;2.95;;
11807;SDS011;5961;42.640;23.380;2022-10-16T14:02:13;5.20;;;4.20;;
11807;SDS011;5961;42.640;23.380;2022-10-16T14:04:45;8.93;;;6.70;;
11807;SDS011;5961;42.640;23.380;2022-10-16T14:07:23;6.20;;;3.20;;
11807;SDS011;5961;42.640;23.380;2022-10-16T14:09:51;8.55;;;4.40;;
11807;SDS011;5961;42.640;23.380;2022-10-16T14:12:19;5.68;;;4.18;;
11807;SDS011;5961;42.640;23.380;2022-10-16T14:14:50;7.35;;;4.97;;
11807;SDS011;5961;42.640;23.380;2022-10-16T14:17:19;5.60;;;3.00;;
11807;SDS011;5961;42.640;23.380;2022-10-16T14:19:49;6.55;;;3.47;;
11807;SDS011;5961;42.640;23.380;2022-10-16T14:25:16;4.05;;;3.10;;
11807;SDS011;5961;42.640;23.380;2022-10-16T14:27:56;4.32;;;3.40;;
11807;SDS011;5961;42.640;23.380;2022-10-16T14:30:27;5.95;;;3.50;;
11807;SDS011;5961;42.640;23.380;2022-10-16T14:32:55;3.80;;;2.97;;
11807;SDS011;5961;42.640;23.380;2022-10-16T14:35:25;4.93;;;3.13;;
11807;SDS011;5961;42.640;23.380;2022-10-16T14:37:54;5.20;;;3.22;;
11807;SDS011;5961;42.640;23.380;2022-10-16T14:40:22;3.47;;;2.70;;
11807;SDS011;5961;42.640;23.380;2022-10-16T14:42:52;5.20;;;3.47;;
11807;SDS011;5961;42.640;23.380;2022-10-16T14:45:20;4.15;;;3.33;;
11807;SDS011;5961;42.640;23.380;2022-10-16T14:47:50;4.07;;;3.15;;
11807;SDS011;5961;42.640;23.380;2022-10-16T14:50:20;6.88;;;3.13;;
11807;SDS011;5961;42.640;23.380;2022-10-16T14:52:47;3.95;;;2.88;;
11807;SDS011;5961;42.640;23.380;2022-10-16T14:55:13;5.32;;;3.20;;
11807;SDS011;5961;42.640;23.380;2022-10-16T14:57:41;8.85;;;3.30;;
11807;SDS011;5961;42.640;23.380;2022-10-16T15:00:13;3.80;;;2.90;;
11807;SDS011;5961;42.640;23.380;2022-10-16T15:02:42;6.53;;;3.00;;
11807;SDS011;5961;42.640;23.380;2022-10-16T15:05:15;6.63;;;3.30;;
11807;SDS011;5961;42.640;23.380;2022-10-16T15:07:44;3.77;;;2.63;;
11807;SDS011;5961;42.640;23.380;2022-10-16T15:10:11;4.27;;;2.90;;
11807;SDS011;5961;42.640;23.380;2022-10-16T15:12:38;4.50;;;3.47;;